Chapaevo, Kazakhstan
Current Conditions -  °F | °C
As of 5:00 PM on Wednesday 26 Nov 2014 (Local Time) from UARR Reporting Station
Clear Clear  
Wind Chill:   Ceiling: Unl
Heat Index: 12°   Visibility: 6mi
Dew Point: -4°   Wind: 7mph
Humidity: 48%   Direction: 240°WSW
Pressure: 30.5"   Gusts: NA
Location:  50.2°N, 51.17°E
Report Text: UARR 261300Z 24003MPS CAVOK M11/M20 Q1033 R22/CLRD70 NOSIG RMKQFE771/1028
Loading
Personal Weather Stations






























Interactive Weather Map New forecast layout! Learn more

10-Day Weather Forecast

Advertisements
Track Severe Weather on mobile